X  Schließen METAR Luftfahrt Wetterdaten     EDDH Hamburg Helmut Schmidt Airport
Temperatur
7°C Temperatur
1°C Taupunkt
66% Feuchtigkeit



Wind
16 KM/S
10 MPS
4 M/S
9 KTS



280°
West
Aktuelle Wetterlage

Teilweise bewölkt Teilweise bewölkt
Luftdruck 1027.92 (hPa) - 30.35 (inHg)
Sichtweite 6.2 (Meile) - 10 (Km)
Flughafen
Flughafen Code EDDH

Position : Hamburg Helmut Schmidt Airport
Entfernung: 11 (Km)

Metar:
EDDH 141550Z 28009KT 250V310 9999 FEW026 07/01 Q1028 NOSIG

Zeit: 14-04-2021 17:50 CEST